sensor_id;sensor_type;location;lat;lon;timestamp;temperature;humidity
20208;DHT22;10263;48.716;8.760;2023-04-25T00:04:24;6.70;99.90
20208;DHT22;10263;48.716;8.760;2023-04-25T00:14:14;6.50;99.90
20208;DHT22;10263;48.716;8.760;2023-04-25T00:19:09;6.60;99.90
20208;DHT22;10263;48.716;8.760;2023-04-25T00:24:06;6.60;99.90
20208;DHT22;10263;48.716;8.760;2023-04-25T00:26:33;6.70;99.90
20208;DHT22;10263;48.716;8.760;2023-04-25T00:38:53;6.50;99.90
20208;DHT22;10263;48.716;8.760;2023-04-25T00:41:20;6.30;99.90
20208;DHT22;10263;48.716;8.760;2023-04-25T00:43:48;6.40;99.90
20208;DHT22;10263;48.716;8.760;2023-04-25T00:46:15;6.50;99.90
20208;DHT22;10263;48.716;8.760;2023-04-25T00:51:12;6.40;99.90
20208;DHT22;10263;48.716;8.760;2023-04-25T00:56:09;6.40;99.90
20208;DHT22;10263;48.716;8.760;2023-04-25T00:58:36;6.40;99.90
20208;DHT22;10263;48.716;8.760;2023-04-25T01:03:32;6.40;99.90
20208;DHT22;10263;48.716;8.760;2023-04-25T01:06:01;6.40;99.90
20208;DHT22;10263;48.716;8.760;2023-04-25T01:13:24;6.50;99.90
20208;DHT22;10263;48.716;8.760;2023-04-25T01:15:52;6.50;99.90
20208;DHT22;10263;48.716;8.760;2023-04-25T01:18:19;6.50;99.90
20208;DHT22;10263;48.716;8.760;2023-04-25T01:23:16;6.20;99.90
20208;DHT22;10263;48.716;8.760;2023-04-25T01:25:43;5.80;99.90
20208;DHT22;10263;48.716;8.760;2023-04-25T01:33:07;6.10;99.90
20208;DHT22;10263;48.716;8.760;2023-04-25T01:35:34;6.30;99.90
20208;DHT22;10263;48.716;8.760;2023-04-25T01:40:30;6.00;99.90
20208;DHT22;10263;48.716;8.760;2023-04-25T01:50:22;6.00;99.90
20208;DHT22;10263;48.716;8.760;2023-04-25T01:55:19;5.70;99.90
20208;DHT22;10263;48.716;8.760;2023-04-25T01:57:58;5.60;99.90
20208;DHT22;10263;48.716;8.760;2023-04-25T02:00:40;5.60;99.90
20208;DHT22;10263;48.716;8.760;2023-04-25T02:03:07;5.60;99.90
20208;DHT22;10263;48.716;8.760;2023-04-25T02:05:35;5.70;99.90
20208;DHT22;10263;48.716;8.760;2023-04-25T02:08:05;5.70;99.90
20208;DHT22;10263;48.716;8.760;2023-04-25T02:13:10;5.60;99.90
20208;DHT22;10263;48.716;8.760;2023-04-25T02:15:44;6.10;99.90
20208;DHT22;10263;48.716;8.760;2023-04-25T02:20:43;5.60;99.90
20208;DHT22;10263;48.716;8.760;2023-04-25T02:23:10;6.10;99.90
20208;DHT22;10263;48.716;8.760;2023-04-25T02:25:36;5.80;99.90
20208;DHT22;10263;48.716;8.760;2023-04-25T02:28:03;5.90;99.90
20208;DHT22;10263;48.716;8.760;2023-04-25T02:30:31;5.60;99.90
20208;DHT22;10263;48.716;8.760;2023-04-25T02:32:58;5.70;99.90
20208;DHT22;10263;48.716;8.760;2023-04-25T02:35:25;5.70;99.90
20208;DHT22;10263;48.716;8.760;2023-04-25T02:37:54;5.60;99.90
20208;DHT22;10263;48.716;8.760;2023-04-25T02:40:21;5.50;99.90
20208;DHT22;10263;48.716;8.760;2023-04-25T02:45:15;5.90;99.90
20208;DHT22;10263;48.716;8.760;2023-04-25T02:47:43;5.60;99.90
20208;DHT22;10263;48.716;8.760;2023-04-25T02:52:39;5.70;99.90
20208;DHT22;10263;48.716;8.760;2023-04-25T02:55:13;5.40;99.90
20208;DHT22;10263;48.716;8.760;2023-04-25T03:00:12;5.90;99.90
20208;DHT22;10263;48.716;8.760;2023-04-25T03:02:39;5.90;99.90
20208;DHT22;10263;48.716;8.760;2023-04-25T03:05:08;6.00;99.90
20208;DHT22;10263;48.716;8.760;2023-04-25T03:07:36;6.40;99.90
20208;DHT22;10263;48.716;8.760;2023-04-25T03:10:05;5.60;99.90
20208;DHT22;10263;48.716;8.760;2023-04-25T03:12:34;6.00;99.90
20208;DHT22;10263;48.716;8.760;2023-04-25T03:17:28;5.20;99.90
20208;DHT22;10263;48.716;8.760;2023-04-25T03:19:55;5.50;99.90
20208;DHT22;10263;48.716;8.760;2023-04-25T03:22:24;5.90;99.90
20208;DHT22;10263;48.716;8.760;2023-04-25T03:24:51;5.60;99.90
20208;DHT22;10263;48.716;8.760;2023-04-25T03:27:19;5.60;99.90
20208;DHT22;10263;48.716;8.760;2023-04-25T03:29:46;5.80;99.90
20208;DHT22;10263;48.716;8.760;2023-04-25T03:34:40;5.40;99.90
20208;DHT22;10263;48.716;8.760;2023-04-25T03:37:07;5.50;99.90
20208;DHT22;10263;48.716;8.760;2023-04-25T03:39:38;5.60;99.90
20208;DHT22;10263;48.716;8.760;2023-04-25T03:42:06;5.70;99.90
20208;DHT22;10263;48.716;8.760;2023-04-25T03:47:00;5.30;99.90
20208;DHT22;10263;48.716;8.760;2023-04-25T03:51:59;5.20;99.90
20208;DHT22;10263;48.716;8.760;2023-04-25T03:54:28;5.00;99.90
20208;DHT22;10263;48.716;8.760;2023-04-25T03:57:05;5.10;99.90
20208;DHT22;10263;48.716;8.760;2023-04-25T03:59:35;5.20;99.90
20208;DHT22;10263;48.716;8.760;2023-04-25T04:02:02;5.00;99.90
20208;DHT22;10263;48.716;8.760;2023-04-25T04:04:31;4.70;99.90
20208;DHT22;10263;48.716;8.760;2023-04-25T04:06:59;4.80;99.90
20208;DHT22;10263;48.716;8.760;2023-04-25T04:11:59;5.20;99.90
20208;DHT22;10263;48.716;8.760;2023-04-25T04:14:30;5.30;99.90
20208;DHT22;10263;48.716;8.760;2023-04-25T04:16:57;4.70;99.90
20208;DHT22;10263;48.716;8.760;2023-04-25T04:19:26;5.00;99.90
20208;DHT22;10263;48.716;8.760;2023-04-25T04:24:31;5.10;99.90
20208;DHT22;10263;48.716;8.760;2023-04-25T04:27:04;4.70;99.90
20208;DHT22;10263;48.716;8.760;2023-04-25T04:29:46;4.80;99.90
20208;DHT22;10263;48.716;8.760;2023-04-25T04:32:36;4.70;99.90
20208;DHT22;10263;48.716;8.760;2023-04-25T04:35:04;5.10;99.90
20208;DHT22;10263;48.716;8.760;2023-04-25T04:37:32;5.20;99.90
20208;DHT22;10263;48.716;8.760;2023-04-25T04:40:00;5.00;99.90
20208;DHT22;10263;48.716;8.760;2023-04-25T04:45:43;5.30;99.90
20208;DHT22;10263;48.716;8.760;2023-04-25T04:48:28;4.90;99.90
20208;DHT22;10263;48.716;8.760;2023-04-25T04:51:18;5.40;99.90
20208;DHT22;10263;48.716;8.760;2023-04-25T04:54:24;5.30;99.90
20208;DHT22;10263;48.716;8.760;2023-04-25T04:57:09;5.00;99.90
20208;DHT22;10263;48.716;8.760;2023-04-25T04:59:56;5.20;99.90
20208;DHT22;10263;48.716;8.760;2023-04-25T05:02:42;5.60;99.90
20208;DHT22;10263;48.716;8.760;2023-04-25T05:05:26;5.40;99.90
20208;DHT22;10263;48.716;8.760;2023-04-25T05:10:51;5.50;99.90
20208;DHT22;10263;48.716;8.760;2023-04-25T05:13:33;5.30;99.90
20208;DHT22;10263;48.716;8.760;2023-04-25T05:19:14;5.80;99.90
20208;DHT22;10263;48.716;8.760;2023-04-25T05:24:35;5.40;99.90
20208;DHT22;10263;48.716;8.760;2023-04-25T05:27:13;5.90;99.90
20208;DHT22;10263;48.716;8.760;2023-04-25T05:29:59;5.70;99.90
20208;DHT22;10263;48.716;8.760;2023-04-25T05:35:00;5.30;99.90
20208;DHT22;10263;48.716;8.760;2023-04-25T05:40:12;5.50;99.90
20208;DHT22;10263;48.716;8.760;2023-04-25T05:51:19;6.00;99.90
20208;DHT22;10263;48.716;8.760;2023-04-25T05:53:45;6.30;99.90
20208;DHT22;10263;48.716;8.760;2023-04-25T05:56:14;6.10;99.90
20208;DHT22;10263;48.716;8.760;2023-04-25T05:58:41;5.90;99.90
20208;DHT22;10263;48.716;8.760;2023-04-25T06:01:10;6.30;99.90
20208;DHT22;10263;48.716;8.760;2023-04-25T06:03:37;5.90;99.90
20208;DHT22;10263;48.716;8.760;2023-04-25T06:06:05;6.30;99.90
20208;DHT22;10263;48.716;8.760;2023-04-25T06:08:33;6.10;99.90
20208;DHT22;10263;48.716;8.760;2023-04-25T06:11:00;6.00;99.90
20208;DHT22;10263;48.716;8.760;2023-04-25T06:18:22;6.10;99.90
20208;DHT22;10263;48.716;8.760;2023-04-25T06:20:49;6.30;99.90
20208;DHT22;10263;48.716;8.760;2023-04-25T06:23:17;6.10;99.90
20208;DHT22;10263;48.716;8.760;2023-04-25T06:25:51;6.20;99.90
20208;DHT22;10263;48.716;8.760;2023-04-25T06:28:19;6.00;99.90
20208;DHT22;10263;48.716;8.760;2023-04-25T06:30:47;6.40;99.90
20208;DHT22;10263;48.716;8.760;2023-04-25T06:33:17;6.10;99.90
20208;DHT22;10263;48.716;8.760;2023-04-25T06:35:44;6.60;99.90
20208;DHT22;10263;48.716;8.760;2023-04-25T06:40:44;6.20;99.90
20208;DHT22;10263;48.716;8.760;2023-04-25T06:43:13;6.20;99.90
20208;DHT22;10263;48.716;8.760;2023-04-25T06:45:49;6.20;99.90
20208;DHT22;10263;48.716;8.760;2023-04-25T06:48:16;6.20;99.90
20208;DHT22;10263;48.716;8.760;2023-04-25T06:50:43;6.20;99.90
20208;DHT22;10263;48.716;8.760;2023-04-25T06:53:11;6.20;99.90
20208;DHT22;10263;48.716;8.760;2023-04-25T06:55:39;6.20;99.90
20208;DHT22;10263;48.716;8.760;2023-04-25T06:58:27;6.30;99.90
20208;DHT22;10263;48.716;8.760;2023-04-25T07:01:14;6.50;99.90
20208;DHT22;10263;48.716;8.760;2023-04-25T07:03:41;6.50;99.90
20208;DHT22;10263;48.716;8.760;2023-04-25T07:06:14;6.00;99.90
20208;DHT22;10263;48.716;8.760;2023-04-25T07:08:41;7.40;99.90
20208;DHT22;10263;48.716;8.760;2023-04-25T07:13:37;6.30;99.90
20208;DHT22;10263;48.716;8.760;2023-04-25T07:16:05;6.50;99.90
20208;DHT22;10263;48.716;8.760;2023-04-25T07:18:33;6.40;99.90
20208;DHT22;10263;48.716;8.760;2023-04-25T07:21:01;6.40;99.90
20208;DHT22;10263;48.716;8.760;2023-04-25T07:25:58;6.30;99.90
20208;DHT22;10263;48.716;8.760;2023-04-25T07:28:27;6.10;99.90
20208;DHT22;10263;48.716;8.760;2023-04-25T07:30:55;6.00;99.90
20208;DHT22;10263;48.716;8.760;2023-04-25T07:33:24;6.60;99.90
20208;DHT22;10263;48.716;8.760;2023-04-25T07:35:51;6.50;99.90
20208;DHT22;10263;48.716;8.760;2023-04-25T07:40:46;6.20;99.90
20208;DHT22;10263;48.716;8.760;2023-04-25T07:43:13;5.90;99.90
20208;DHT22;10263;48.716;8.760;2023-04-25T07:50:48;6.20;99.90
20208;DHT22;10263;48.716;8.760;2023-04-25T07:53:16;6.10;99.90
20208;DHT22;10263;48.716;8.760;2023-04-25T07:55:50;5.90;99.90
20208;DHT22;10263;48.716;8.760;2023-04-25T08:00:48;5.80;99.90
20208;DHT22;10263;48.716;8.760;2023-04-25T08:03:43;5.80;99.90
20208;DHT22;10263;48.716;8.760;2023-04-25T08:06:16;6.00;99.90
20208;DHT22;10263;48.716;8.760;2023-04-25T08:08:52;6.40;99.90
20208;DHT22;10263;48.716;8.760;2023-04-25T08:11:22;6.10;99.90
20208;DHT22;10263;48.716;8.760;2023-04-25T08:13:49;6.10;99.90
20208;DHT22;10263;48.716;8.760;2023-04-25T08:16:16;6.40;99.90
20208;DHT22;10263;48.716;8.760;2023-04-25T08:18:45;6.20;99.90
20208;DHT22;10263;48.716;8.760;2023-04-25T08:21:11;6.30;99.90
20208;DHT22;10263;48.716;8.760;2023-04-25T08:23:39;6.30;99.90
20208;DHT22;10263;48.716;8.760;2023-04-25T08:26:20;6.10;99.90
20208;DHT22;10263;48.716;8.760;2023-04-25T08:28:49;6.00;99.90
20208;DHT22;10263;48.716;8.760;2023-04-25T08:31:16;4.40;99.90
20208;DHT22;10263;48.716;8.760;2023-04-25T08:33:53;6.10;99.90
20208;DHT22;10263;48.716;8.760;2023-04-25T08:36:27;6.10;99.90
20208;DHT22;10263;48.716;8.760;2023-04-25T08:38:54;6.20;99.90
20208;DHT22;10263;48.716;8.760;2023-04-25T08:41:21;6.10;99.90
20208;DHT22;10263;48.716;8.760;2023-04-25T08:43:49;6.00;99.90
20208;DHT22;10263;48.716;8.760;2023-04-25T08:46:18;6.10;99.90
20208;DHT22;10263;48.716;8.760;2023-04-25T08:49:10;5.90;99.90
20208;DHT22;10263;48.716;8.760;2023-04-25T08:51:44;6.30;99.90
20208;DHT22;10263;48.716;8.760;2023-04-25T08:54:14;6.30;99.90
20208;DHT22;10263;48.716;8.760;2023-04-25T08:56:44;5.90;99.90
20208;DHT22;10263;48.716;8.760;2023-04-25T08:59:12;6.00;99.90
20208;DHT22;10263;48.716;8.760;2023-04-25T09:04:11;6.00;99.90
20208;DHT22;10263;48.716;8.760;2023-04-25T09:06:39;6.60;99.90
20208;DHT22;10263;48.716;8.760;2023-04-25T09:09:06;6.30;99.90
20208;DHT22;10263;48.716;8.760;2023-04-25T09:11:34;5.80;99.90
20208;DHT22;10263;48.716;8.760;2023-04-25T09:14:12;6.30;99.90
20208;DHT22;10263;48.716;8.760;2023-04-25T09:17:04;6.00;99.90
20208;DHT22;10263;48.716;8.760;2023-04-25T09:19:46;6.00;99.90
20208;DHT22;10263;48.716;8.760;2023-04-25T09:27:24;6.20;99.90
20208;DHT22;10263;48.716;8.760;2023-04-25T09:30:01;5.80;99.90
20208;DHT22;10263;48.716;8.760;2023-04-25T09:32:45;5.80;99.90
20208;DHT22;10263;48.716;8.760;2023-04-25T09:35:23;5.90;99.90
20208;DHT22;10263;48.716;8.760;2023-04-25T09:37:51;5.90;99.90
20208;DHT22;10263;48.716;8.760;2023-04-25T09:40:42;5.80;99.90
20208;DHT22;10263;48.716;8.760;2023-04-25T09:43:20;5.80;99.90
20208;DHT22;10263;48.716;8.760;2023-04-25T09:45:48;5.60;99.90
20208;DHT22;10263;48.716;8.760;2023-04-25T09:48:18;5.80;99.90
20208;DHT22;10263;48.716;8.760;2023-04-25T09:51:03;6.20;99.90
20208;DHT22;10263;48.716;8.760;2023-04-25T09:53:31;5.90;99.90
20208;DHT22;10263;48.716;8.760;2023-04-25T09:56:10;6.00;99.90
20208;DHT22;10263;48.716;8.760;2023-04-25T09:58:38;6.00;99.90
20208;DHT22;10263;48.716;8.760;2023-04-25T10:01:07;6.00;99.90
20208;DHT22;10263;48.716;8.760;2023-04-25T10:03:46;6.00;99.90
20208;DHT22;10263;48.716;8.760;2023-04-25T10:06:36;6.10;99.90
20208;DHT22;10263;48.716;8.760;2023-04-25T10:09:04;6.20;99.90
20208;DHT22;10263;48.716;8.760;2023-04-25T10:11:34;6.20;99.90
20208;DHT22;10263;48.716;8.760;2023-04-25T10:14:01;6.50;99.90
20208;DHT22;10263;48.716;8.760;2023-04-25T10:17:02;5.90;99.90
20208;DHT22;10263;48.716;8.760;2023-04-25T10:19:29;6.20;99.90
20208;DHT22;10263;48.716;8.760;2023-04-25T10:22:04;6.50;99.90
20208;DHT22;10263;48.716;8.760;2023-04-25T10:24:32;6.40;99.90
20208;DHT22;10263;48.716;8.760;2023-04-25T10:26:59;6.20;99.90
20208;DHT22;10263;48.716;8.760;2023-04-25T10:31:57;6.70;99.90
20208;DHT22;10263;48.716;8.760;2023-04-25T10:34:25;6.80;99.90
20208;DHT22;10263;48.716;8.760;2023-04-25T10:37:09;7.00;99.90
20208;DHT22;10263;48.716;8.760;2023-04-25T10:39:36;7.20;99.90
20208;DHT22;10263;48.716;8.760;2023-04-25T10:42:04;8.60;99.90
20208;DHT22;10263;48.716;8.760;2023-04-25T10:44:32;7.80;99.90
20208;DHT22;10263;48.716;8.760;2023-04-25T10:47:00;7.90;99.90
20208;DHT22;10263;48.716;8.760;2023-04-25T10:49:32;8.10;99.90
20208;DHT22;10263;48.716;8.760;2023-04-25T10:52:17;7.90;99.90
20208;DHT22;10263;48.716;8.760;2023-04-25T10:54:48;8.10;99.90
20208;DHT22;10263;48.716;8.760;2023-04-25T10:57:28;7.70;99.90
20208;DHT22;10263;48.716;8.760;2023-04-25T10:59:58;7.70;99.90
20208;DHT22;10263;48.716;8.760;2023-04-25T11:02:26;7.60;99.90
20208;DHT22;10263;48.716;8.760;2023-04-25T11:04:54;8.10;99.90
20208;DHT22;10263;48.716;8.760;2023-04-25T11:07:31;7.90;99.90
20208;DHT22;10263;48.716;8.760;2023-04-25T11:10:02;7.80;99.90
20208;DHT22;10263;48.716;8.760;2023-04-25T11:12:30;8.20;99.90
20208;DHT22;10263;48.716;8.760;2023-04-25T11:15:01;8.00;99.90
20208;DHT22;10263;48.716;8.760;2023-04-25T11:17:28;7.80;99.90
20208;DHT22;10263;48.716;8.760;2023-04-25T11:19:55;8.20;99.90
20208;DHT22;10263;48.716;8.760;2023-04-25T11:22:24;7.90;99.90
20208;DHT22;10263;48.716;8.760;2023-04-25T11:24:52;7.80;99.90
20208;DHT22;10263;48.716;8.760;2023-04-25T11:27:20;8.20;99.90
20208;DHT22;10263;48.716;8.760;2023-04-25T11:32:15;8.00;99.90
20208;DHT22;10263;48.716;8.760;2023-04-25T11:34:43;7.80;99.90
20208;DHT22;10263;48.716;8.760;2023-04-25T11:37:11;7.70;99.90
20208;DHT22;10263;48.716;8.760;2023-04-25T11:39:43;7.60;99.90
20208;DHT22;10263;48.716;8.760;2023-04-25T11:42:11;7.60;99.90
20208;DHT22;10263;48.716;8.760;2023-04-25T11:44:38;8.20;99.90
20208;DHT22;10263;48.716;8.760;2023-04-25T11:47:06;7.60;99.90
20208;DHT22;10263;48.716;8.760;2023-04-25T11:49:32;7.90;99.90
20208;DHT22;10263;48.716;8.760;2023-04-25T11:52:00;8.00;99.90
20208;DHT22;10263;48.716;8.760;2023-04-25T11:54:27;8.20;99.90
20208;DHT22;10263;48.716;8.760;2023-04-25T11:56:55;7.80;99.90
20208;DHT22;10263;48.716;8.760;2023-04-25T11:59:24;8.00;99.90
20208;DHT22;10263;48.716;8.760;2023-04-25T12:01:52;7.90;99.90
20208;DHT22;10263;48.716;8.760;2023-04-25T12:04:21;8.10;99.90
20208;DHT22;10263;48.716;8.760;2023-04-25T12:06:50;8.10;99.90
20208;DHT22;10263;48.716;8.760;2023-04-25T12:09:18;8.00;99.90
20208;DHT22;10263;48.716;8.760;2023-04-25T12:11:48;8.10;99.90
20208;DHT22;10263;48.716;8.760;2023-04-25T12:14:22;8.10;99.90
20208;DHT22;10263;48.716;8.760;2023-04-25T12:16:50;8.20;99.90
20208;DHT22;10263;48.716;8.760;2023-04-25T12:19:20;8.20;99.90
20208;DHT22;10263;48.716;8.760;2023-04-25T12:21:47;8.50;99.90
20208;DHT22;10263;48.716;8.760;2023-04-25T12:24:15;8.70;99.90
20208;DHT22;10263;48.716;8.760;2023-04-25T12:26:48;8.40;99.90
20208;DHT22;10263;48.716;8.760;2023-04-25T12:29:16;8.70;99.90
20208;DHT22;10263;48.716;8.760;2023-04-25T12:31:44;9.00;99.90
20208;DHT22;10263;48.716;8.760;2023-04-25T12:34:12;8.90;99.90
20208;DHT22;10263;48.716;8.760;2023-04-25T12:36:38;9.40;99.90
20208;DHT22;10263;48.716;8.760;2023-04-25T12:39:05;9.50;99.90
20208;DHT22;10263;48.716;8.760;2023-04-25T12:41:33;9.40;99.90
20208;DHT22;10263;48.716;8.760;2023-04-25T12:46:27;9.80;99.90
20208;DHT22;10263;48.716;8.760;2023-04-25T12:48:55;10.10;99.90
20208;DHT22;10263;48.716;8.760;2023-04-25T12:51:23;9.90;99.90
20208;DHT22;10263;48.716;8.760;2023-04-25T12:56:18;10.20;99.90
20208;DHT22;10263;48.716;8.760;2023-04-25T12:58:46;10.40;99.90
20208;DHT22;10263;48.716;8.760;2023-04-25T13:01:13;10.40;99.90
20208;DHT22;10263;48.716;8.760;2023-04-25T13:03:40;10.40;99.90
20208;DHT22;10263;48.716;8.760;2023-04-25T13:06:08;10.20;99.90
20208;DHT22;10263;48.716;8.760;2023-04-25T13:08:35;10.00;99.90
20208;DHT22;10263;48.716;8.760;2023-04-25T13:11:04;9.90;99.90
20208;DHT22;10263;48.716;8.760;2023-04-25T13:13:31;10.00;99.90
20208;DHT22;10263;48.716;8.760;2023-04-25T13:16:00;9.80;99.90
20208;DHT22;10263;48.716;8.760;2023-04-25T13:20:54;9.50;99.90
20208;DHT22;10263;48.716;8.760;2023-04-25T13:23:23;9.90;99.90
20208;DHT22;10263;48.716;8.760;2023-04-25T13:25:50;9.70;99.90
20208;DHT22;10263;48.716;8.760;2023-04-25T13:30:44;10.20;99.90
20208;DHT22;10263;48.716;8.760;2023-04-25T13:35:38;10.20;99.90
20208;DHT22;10263;48.716;8.760;2023-04-25T13:38:05;9.90;99.90
20208;DHT22;10263;48.716;8.760;2023-04-25T13:40:33;10.40;99.90
20208;DHT22;10263;48.716;8.760;2023-04-25T13:43:01;10.40;99.90
20208;DHT22;10263;48.716;8.760;2023-04-25T13:45:28;10.20;99.90
20208;DHT22;10263;48.716;8.760;2023-04-25T13:47:54;10.30;99.90
20208;DHT22;10263;48.716;8.760;2023-04-25T13:50:21;9.90;99.90
20208;DHT22;10263;48.716;8.760;2023-04-25T13:55:15;10.60;99.90
20208;DHT22;10263;48.716;8.760;2023-04-25T13:57:43;10.90;99.90
20208;DHT22;10263;48.716;8.760;2023-04-25T14:00:11;11.00;99.90
20208;DHT22;10263;48.716;8.760;2023-04-25T14:05:06;11.00;99.90
20208;DHT22;10263;48.716;8.760;2023-04-25T14:07:33;11.50;99.90
20208;DHT22;10263;48.716;8.760;2023-04-25T14:10:00;11.40;99.90
20208;DHT22;10263;48.716;8.760;2023-04-25T14:12:27;11.40;99.90
20208;DHT22;10263;48.716;8.760;2023-04-25T14:14:55;11.30;99.90
20208;DHT22;10263;48.716;8.760;2023-04-25T14:17:22;11.40;99.90
20208;DHT22;10263;48.716;8.760;2023-04-25T14:19:49;10.90;99.90
20208;DHT22;10263;48.716;8.760;2023-04-25T14:29:38;10.90;99.90
20208;DHT22;10263;48.716;8.760;2023-04-25T14:32:07;11.20;99.90
20208;DHT22;10263;48.716;8.760;2023-04-25T14:34:34;11.30;99.90
20208;DHT22;10263;48.716;8.760;2023-04-25T14:39:28;11.40;99.90
20208;DHT22;10263;48.716;8.760;2023-04-25T14:41:54;11.50;99.90
20208;DHT22;10263;48.716;8.760;2023-04-25T14:44:21;11.60;99.90
20208;DHT22;10263;48.716;8.760;2023-04-25T14:46:48;11.60;99.90
20208;DHT22;10263;48.716;8.760;2023-04-25T14:49:18;12.30;99.90
20208;DHT22;10263;48.716;8.760;2023-04-25T14:51:45;12.30;99.90
20208;DHT22;10263;48.716;8.760;2023-04-25T14:54:12;12.10;99.90
20208;DHT22;10263;48.716;8.760;2023-04-25T14:59:06;11.80;99.90
20208;DHT22;10263;48.716;8.760;2023-04-25T15:01:33;12.10;99.90
20208;DHT22;10263;48.716;8.760;2023-04-25T15:04:00;12.30;99.90
20208;DHT22;10263;48.716;8.760;2023-04-25T15:06:28;12.00;99.90
20208;DHT22;10263;48.716;8.760;2023-04-25T15:08:55;12.20;99.90
20208;DHT22;10263;48.716;8.760;2023-04-25T15:11:23;12.40;99.90
20208;DHT22;10263;48.716;8.760;2023-04-25T15:13:50;12.20;99.90
20208;DHT22;10263;48.716;8.760;2023-04-25T15:16:16;12.00;99.90
20208;DHT22;10263;48.716;8.760;2023-04-25T15:18:43;12.30;99.90
20208;DHT22;10263;48.716;8.760;2023-04-25T15:23:39;12.00;99.90
20208;DHT22;10263;48.716;8.760;2023-04-25T15:26:05;12.00;99.90
20208;DHT22;10263;48.716;8.760;2023-04-25T15:28:32;12.40;99.90
20208;DHT22;10263;48.716;8.760;2023-04-25T15:31:00;12.30;99.90
20208;DHT22;10263;48.716;8.760;2023-04-25T15:35:54;12.20;99.90
20208;DHT22;10263;48.716;8.760;2023-04-25T15:38:23;12.30;99.90
20208;DHT22;10263;48.716;8.760;2023-04-25T15:40:51;12.00;99.90
20208;DHT22;10263;48.716;8.760;2023-04-25T15:43:18;11.70;99.90
20208;DHT22;10263;48.716;8.760;2023-04-25T15:45:45;11.80;99.90
20208;DHT22;10263;48.716;8.760;2023-04-25T15:48:12;11.60;99.90
20208;DHT22;10263;48.716;8.760;2023-04-25T15:50:39;11.50;99.90
20208;DHT22;10263;48.716;8.760;2023-04-25T15:55:34;11.50;99.90
20208;DHT22;10263;48.716;8.760;2023-04-25T15:58:02;11.10;99.90
20208;DHT22;10263;48.716;8.760;2023-04-25T16:05:26;11.30;99.90
20208;DHT22;10263;48.716;8.760;2023-04-25T16:10:20;11.30;99.90
20208;DHT22;10263;48.716;8.760;2023-04-25T16:12:47;11.40;99.90
20208;DHT22;10263;48.716;8.760;2023-04-25T16:15:16;11.10;99.90
20208;DHT22;10263;48.716;8.760;2023-04-25T16:20:11;11.30;99.90
20208;DHT22;10263;48.716;8.760;2023-04-25T16:22:40;11.40;99.90
20208;DHT22;10263;48.716;8.760;2023-04-25T16:25:08;11.20;99.90
20208;DHT22;10263;48.716;8.760;2023-04-25T16:27:35;11.00;99.90
20208;DHT22;10263;48.716;8.760;2023-04-25T16:30:06;11.30;99.90
20208;DHT22;10263;48.716;8.760;2023-04-25T16:32:35;10.90;99.90
20208;DHT22;10263;48.716;8.760;2023-04-25T16:35:02;11.10;99.90
20208;DHT22;10263;48.716;8.760;2023-04-25T16:39:56;10.70;99.90
20208;DHT22;10263;48.716;8.760;2023-04-25T16:42:23;11.00;99.90
20208;DHT22;10263;48.716;8.760;2023-04-25T16:44:50;10.60;99.90
20208;DHT22;10263;48.716;8.760;2023-04-25T16:47:17;10.50;99.90
20208;DHT22;10263;48.716;8.760;2023-04-25T16:49:45;11.00;99.90
20208;DHT22;10263;48.716;8.760;2023-04-25T16:52:12;10.30;99.90
20208;DHT22;10263;48.716;8.760;2023-04-25T16:54:40;10.30;99.90
20208;DHT22;10263;48.716;8.760;2023-04-25T16:57:07;10.30;99.90
20208;DHT22;10263;48.716;8.760;2023-04-25T16:59:36;10.50;99.90
20208;DHT22;10263;48.716;8.760;2023-04-25T17:02:02;10.10;99.90
20208;DHT22;10263;48.716;8.760;2023-04-25T17:04:29;10.30;99.90
20208;DHT22;10263;48.716;8.760;2023-04-25T17:06:57;10.10;99.90
20208;DHT22;10263;48.716;8.760;2023-04-25T17:11:51;9.60;99.90
20208;DHT22;10263;48.716;8.760;2023-04-25T17:14:18;9.50;99.90
20208;DHT22;10263;48.716;8.760;2023-04-25T17:16:45;9.50;99.90
20208;DHT22;10263;48.716;8.760;2023-04-25T17:19:12;9.60;99.90
20208;DHT22;10263;48.716;8.760;2023-04-25T17:21:38;9.50;99.90
20208;DHT22;10263;48.716;8.760;2023-04-25T17:24:07;9.30;99.90
20208;DHT22;10263;48.716;8.760;2023-04-25T17:26:36;9.40;99.90
20208;DHT22;10263;48.716;8.760;2023-04-25T17:29:03;9.50;99.90
20208;DHT22;10263;48.716;8.760;2023-04-25T17:36:24;9.20;99.90
20208;DHT22;10263;48.716;8.760;2023-04-25T17:38:51;8.90;99.90
20208;DHT22;10263;48.716;8.760;2023-04-25T17:41:19;8.80;99.90
20208;DHT22;10263;48.716;8.760;2023-04-25T17:46:13;8.70;99.90
20208;DHT22;10263;48.716;8.760;2023-04-25T17:48:40;8.70;99.90
20208;DHT22;10263;48.716;8.760;2023-04-25T17:51:07;8.90;99.90
20208;DHT22;10263;48.716;8.760;2023-04-25T17:53:35;8.70;99.90
20208;DHT22;10263;48.716;8.760;2023-04-25T17:58:30;8.60;99.90
20208;DHT22;10263;48.716;8.760;2023-04-25T18:00:57;8.30;99.90
20208;DHT22;10263;48.716;8.760;2023-04-25T18:03:24;8.10;99.90
20208;DHT22;10263;48.716;8.760;2023-04-25T18:13:13;8.30;99.90
20208;DHT22;10263;48.716;8.760;2023-04-25T18:15:43;8.00;99.90
20208;DHT22;10263;48.716;8.760;2023-04-25T18:18:10;8.30;99.90
20208;DHT22;10263;48.716;8.760;2023-04-25T18:20:44;8.10;99.90
20208;DHT22;10263;48.716;8.760;2023-04-25T18:25:38;8.00;99.90
20208;DHT22;10263;48.716;8.760;2023-04-25T18:28:06;8.00;99.90
20208;DHT22;10263;48.716;8.760;2023-04-25T18:30:33;7.80;99.90
20208;DHT22;10263;48.716;8.760;2023-04-25T18:33:01;7.80;99.90
20208;DHT22;10263;48.716;8.760;2023-04-25T18:35:28;7.70;99.90
20208;DHT22;10263;48.716;8.760;2023-04-25T18:37:55;7.80;99.90
20208;DHT22;10263;48.716;8.760;2023-04-25T18:40:22;7.40;99.90
20208;DHT22;10263;48.716;8.760;2023-04-25T18:42:49;7.70;99.90
20208;DHT22;10263;48.716;8.760;2023-04-25T18:45:16;7.40;99.90
20208;DHT22;10263;48.716;8.760;2023-04-25T18:47:42;7.60;99.90
20208;DHT22;10263;48.716;8.760;2023-04-25T18:50:12;7.40;99.90
20208;DHT22;10263;48.716;8.760;2023-04-25T18:55:08;7.60;99.90
20208;DHT22;10263;48.716;8.760;2023-04-25T18:57:35;7.70;99.90
20208;DHT22;10263;48.716;8.760;2023-04-25T19:00:03;7.30;99.90
20208;DHT22;10263;48.716;8.760;2023-04-25T19:02:31;7.20;99.90
20208;DHT22;10263;48.716;8.760;2023-04-25T19:07:26;7.20;99.90
20208;DHT22;10263;48.716;8.760;2023-04-25T19:12:22;7.30;99.90
20208;DHT22;10263;48.716;8.760;2023-04-25T19:14:49;7.30;99.90
20208;DHT22;10263;48.716;8.760;2023-04-25T19:17:16;7.00;99.90
20208;DHT22;10263;48.716;8.760;2023-04-25T19:19:43;7.00;99.90
20208;DHT22;10263;48.716;8.760;2023-04-25T19:22:10;7.00;99.90
20208;DHT22;10263;48.716;8.760;2023-04-25T19:24:38;6.90;99.90
20208;DHT22;10263;48.716;8.760;2023-04-25T19:27:05;7.50;99.90
20208;DHT22;10263;48.716;8.760;2023-04-25T19:29:31;7.50;99.90
20208;DHT22;10263;48.716;8.760;2023-04-25T19:31:59;7.30;99.90
20208;DHT22;10263;48.716;8.760;2023-04-25T19:36:54;7.10;99.90
20208;DHT22;10263;48.716;8.760;2023-04-25T19:39:21;7.00;99.90
20208;DHT22;10263;48.716;8.760;2023-04-25T19:41:49;7.50;99.90
20208;DHT22;10263;48.716;8.760;2023-04-25T19:46:43;7.40;99.90